Time;durP1;ratioP1;P1;durP2;ratioP2;P2;SDS_P1;SDS_P2;PMS_P1;PMS_P2;Temp;Humidity;BMP_temperature;BMP_pressure;BME280_temperature;BME280_humidity;BME280_pressure;Samples;Min_cycle;Max_cycle;Signal;HPM_P1;HPM_P2
2022/06/13 16:38:02;;;;;;;6.20;1.30;;;;;;;25.28;52.63;100242.33;84768;1315;601096;-33
2022/06/13 16:40:34;;;;;;;3.00;1.20;;;;;;;25.29;52.34;100238.99;87986;1278;79175;-34
2022/06/13 16:42:47;;;;;;;3.10;1.40;;;;;;;25.29;52.11;100228.77;88063;1277;79566;-35
2022/06/13 16:45:08;;;;;;;3.40;1.20;;;;;;;25.29;52.04;100220.92;88077;1280;95836;-37
2022/06/13 16:47:33;;;;;;;2.20;1.20;;;;;;;25.31;51.92;100218.79;88055;1277;90921;-33
2022/06/13 16:49:50;;;;;;;3.60;1.20;;;;;;;25.33;51.86;100199.45;88051;1277;91979;-35
2022/06/13 16:52:05;;;;;;;4.80;1.50;;;;;;;25.36;51.71;100175.59;87910;1274;260948;-34
2022/06/13 16:54:17;;;;;;;2.50;1.00;;;;;;;25.39;51.59;100168.21;88081;1274;80894;-35
2022/06/13 16:56:26;;;;;;;4.20;1.40;;;;;;;25.43;51.52;100165.41;88155;1274;96552;-37
2022/06/13 16:58:49;;;;;;;2.30;1.20;;;;;;;25.47;51.42;100145.80;88126;1274;92242;-34
2022/06/13 17:01:11;;;;;;;3.40;1.40;;;;;;;25.51;51.45;100133.42;88136;1275;94295;-33
2022/06/13 17:03:20;;;;;;;1.70;1.10;;;;;;;25.55;51.49;100130.44;88113;1274;78665;-35
2022/06/13 17:05:37;;;;;;;2.00;1.20;;;;;;;25.59;51.38;100126.52;88155;1275;83129;-35
2022/06/13 17:08:04;;;;;;;2.80;1.40;;;;;;;25.64;51.34;100123.30;88089;1276;97248;-35
2022/06/13 17:10:22;;;;;;;2.90;1.20;;;;;;;25.70;51.25;100116.54;88139;1274;91312;-35
2022/06/13 17:12:50;;;;;;;2.50;1.10;;;;;;;25.73;51.14;100107.53;88114;1276;95627;-35
2022/06/13 17:15:00;;;;;;;2.60;1.00;;;;;;;25.78;51.07;100103.27;88073;1274;79792;-34
2022/06/13 17:17:14;;;;;;;1.90;1.20;;;;;;;25.83;50.95;100107.80;88141;1274;82622;-35
2022/06/13 17:19:25;;;;;;;2.10;1.50;;;;;;;25.87;50.88;100128.79;88090;1275;97522;-32
2022/06/13 17:21:34;;;;;;;1.80;1.20;;;;;;;25.89;50.84;100148.29;88106;1275;91563;-32
2022/06/13 17:23:42;;;;;;;2.10;1.20;;;;;;;25.92;50.61;100156.00;88095;1274;95679;-33
2022/06/13 17:33:09;;;;;;;2.60;1.30;;;;;;;25.92;50.21;100189.23;88082;1274;91489;-32
2022/06/13 17:35:18;;;;;;;1.60;1.00;;;;;;;25.93;50.36;100195.24;88139;1274;94888;-32
2022/06/13 17:37:26;;;;;;;4.60;1.20;;;;;;;25.95;50.15;100206.91;88106;1274;79595;-34
2022/06/13 17:39:35;;;;;;;2.90;1.20;;;;;;;25.95;50.24;100213.44;88126;1274;80170;-33
2022/06/13 17:41:45;;;;;;;2.70;1.50;;;;;;;25.98;50.09;100210.36;88135;1275;97250;-33
2022/06/13 17:43:54;;;;;;;3.60;1.50;;;;;;;25.91;49.83;100200.86;88165;1275;94493;-35
2022/06/13 17:46:03;;;;;;;1.60;1.40;;;;;;;25.70;49.78;100200.33;88051;1275;94403;-32
2022/06/13 17:48:12;;;;;;;2.10;1.20;;;;;;;25.47;49.95;100211.52;88147;1274;80252;-35
2022/06/13 17:50:27;;;;;;;1.20;1.00;;;;;;;25.42;50.01;100214.92;88081;1277;82084;-33
2022/06/13 17:52:38;;;;;;;1.90;1.30;;;;;;;25.44;50.13;100214.19;88634;1276;95870;-33
2022/06/13 17:54:48;;;;;;;2.00;1.30;;;;;;;25.46;50.13;100214.84;88256;1277;91218;-33
2022/06/13 17:57:00;;;;;;;2.30;1.80;;;;;;;25.47;49.93;100220.81;88187;1277;94756;-33
2022/06/13 17:59:09;;;;;;;1.60;1.20;;;;;;;25.47;49.93;100231.39;88143;1276;79832;-33
2022/06/13 18:01:19;;;;;;;2.10;1.00;;;;;;;25.46;49.92;100227.84;88138;1277;82229;-34
2022/06/13 18:03:31;;;;;;;1.80;1.10;;;;;;;25.45;49.83;100220.27;88121;1276;96198;-34
2022/06/13 18:05:42;;;;;;;1.60;1.20;;;;;;;25.44;49.73;100233.38;88145;1276;90376;-34
2022/06/13 18:07:56;;;;;;;2.20;1.40;;;;;;;25.42;49.74;100244.13;88120;1277;94080;-34
2022/06/13 18:10:05;;;;;;;2.20;1.40;;;;;;;25.41;49.68;100249.46;88144;1276;77553;-33
2022/06/13 18:12:18;;;;;;;1.50;1.10;;;;;;;25.40;49.66;100251.63;88139;1276;83172;-34
2022/06/13 18:14:26;;;;;;;2.20;1.20;;;;;;;25.38;49.62;100251.73;88074;1277;97802;-33
2022/06/13 18:16:36;;;;;;;2.50;1.60;;;;;;;25.37;49.63;100256.57;88085;1276;90554;-34
2022/06/13 18:18:46;;;;;;;3.00;1.30;;;;;;;25.36;49.53;100261.79;88119;1277;94846;-33
2022/06/13 18:20:55;;;;;;;2.00;1.30;;;;;;;25.34;49.47;100269.64;88093;1276;80262;-34
2022/06/13 18:23:04;;;;;;;1.70;1.10;;;;;;;25.34;49.52;100269.09;88083;1276;82576;-34
2022/06/13 18:25:14;;;;;;;3.10;1.20;;;;;;;25.33;49.53;100261.92;88113;1276;95680;-34
2022/06/13 18:27:23;;;;;;;1.60;1.10;;;;;;;25.31;49.52;100260.67;88096;1276;90094;-35
2022/06/13 18:29:34;;;;;;;2.40;1.30;;;;;;;25.31;49.54;100269.07;88100;1276;93106;-33
2022/06/13 18:31:43;;;;;;;2.40;1.40;;;;;;;25.31;49.48;100275.15;88062;1277;78267;-33
2022/06/13 18:33:52;;;;;;;3.20;1.30;;;;;;;25.30;49.43;100278.10;88047;1276;82442;-34
2022/06/13 18:35:59;;;;;;;2.10;1.40;;;;;;;25.28;49.36;100274.51;88074;1276;97368;-33
2022/06/13 18:38:09;;;;;;;1.70;1.10;;;;;;;25.28;49.46;100271.80;88063;1276;91818;-34
2022/06/13 18:40:22;;;;;;;2.00;1.10;;;;;;;25.28;49.36;100276.90;88094;1276;95595;-33
2022/06/13 18:42:34;;;;;;;1.20;1.00;;;;;;;25.27;49.42;100281.77;88117;1277;80555;-33
2022/06/13 18:44:45;;;;;;;2.50;1.20;;;;;;;25.26;49.31;100281.78;88109;1276;82914;-33
2022/06/13 18:46:53;;;;;;;2.20;1.20;;;;;;;25.25;49.37;100282.61;88104;1276;97043;-33
2022/06/13 18:49:03;;;;;;;1.30;1.20;;;;;;;25.24;49.32;100277.98;88097;1275;91879;-33
2022/06/13 18:51:14;;;;;;;2.20;1.20;;;;;;;25.23;49.38;100281.91;88124;1277;94128;-33
2022/06/13 18:53:25;;;;;;;1.30;1.10;;;;;;;25.22;49.37;100285.17;88148;1276;78302;-34
2022/06/13 18:55:33;;;;;;;2.90;1.20;;;;;;;25.21;49.40;100290.83;88422;1276;80731;-33
2022/06/13 18:57:42;;;;;;;2.00;1.30;;;;;;;25.20;49.29;100298.80;88133;1276;97335;-33
2022/06/13 18:59:49;;;;;;;1.40;1.20;;;;;;;25.18;49.35;100300.97;88121;1275;90217;-34
2022/06/13 19:01:59;;;;;;;1.70;1.40;;;;;;;25.16;49.26;100302.09;88119;1276;94292;-36
2022/06/13 19:04:14;;;;;;;2.10;1.20;;;;;;;25.12;49.40;100300.52;88104;1277;79182;-35
2022/06/13 19:06:26;;;;;;;1.40;1.00;;;;;;;25.10;49.45;100306.73;88201;1275;80749;-35
2022/06/13 19:08:34;;;;;;;1.90;1.30;;;;;;;25.07;49.43;100310.94;88170;1277;96146;-35
2022/06/13 19:10:43;;;;;;;2.50;1.20;;;;;;;25.05;49.49;100317.70;88131;1276;92239;-35
2022/06/13 19:12:57;;;;;;;1.30;1.00;;;;;;;25.04;49.50;100318.33;88140;1276;93406;-35
2022/06/13 19:15:14;;;;;;;1.60;1.10;;;;;;;25.03;49.63;100321.77;88142;1277;79271;-37
2022/06/13 19:17:25;;;;;;;2.00;1.30;;;;;;;25.03;49.54;100327.63;88144;1276;81717;-36
2022/06/13 19:19:36;;;;;;;1.40;1.30;;;;;;;25.02;49.54;100324.65;88118;1276;98090;-35
2022/06/13 19:21:44;;;;;;;1.40;1.30;;;;;;;25.01;49.58;100319.99;88138;1276;90462;-35
2022/06/13 19:23:55;;;;;;;1.40;1.10;;;;;;;25.00;49.62;100315.86;88130;1276;94577;-36
2022/06/13 19:26:09;;;;;;;2.90;1.40;;;;;;;24.99;49.63;100318.13;88152;1276;78899;-36
2022/06/13 19:28:19;;;;;;;1.50;1.00;;;;;;;24.99;49.67;100319.47;88171;1277;80839;-35
2022/06/13 19:30:28;;;;;;;2.60;1.40;;;;;;;24.99;49.68;100325.43;88152;1277;96289;-35
2022/06/13 19:32:42;;;;;;;1.30;1.10;;;;;;;24.98;49.74;100326.98;88121;1276;92760;-36
2022/06/13 19:34:53;;;;;;;2.00;1.30;;;;;;;24.97;49.76;100331.74;88122;1276;95103;-35
2022/06/13 19:37:08;;;;;;;2.20;1.60;;;;;;;24.97;49.82;100340.20;88126;1276;80311;-34
2022/06/13 19:39:21;;;;;;;2.30;1.20;;;;;;;24.95;49.76;100342.81;88100;1276;81689;-34
2022/06/13 19:41:33;;;;;;;1.70;1.20;;;;;;;24.95;49.82;100346.73;88148;1277;96046;-34
2022/06/13 19:43:45;;;;;;;2.60;1.40;;;;;;;24.95;49.77;100348.28;88162;1277;91224;-33
2022/06/13 19:45:58;;;;;;;1.70;1.30;;;;;;;24.94;49.70;100348.79;88189;1277;93222;-35
2022/06/13 19:48:09;;;;;;;1.50;1.30;;;;;;;24.93;49.72;100353.00;88138;1275;78294;-34
2022/06/13 19:50:18;;;;;;;1.80;1.30;;;;;;;24.92;49.81;100359.03;88134;1276;82104;-36
2022/06/13 19:54:52;;;;;;;1.60;1.30;;;;;;;24.91;49.70;100360.86;88143;1277;92311;-36
2022/06/13 19:57:06;;;;;;;2.20;1.30;;;;;;;24.90;49.70;100360.81;88139;1276;94550;-36
2022/06/13 19:59:14;;;;;;;1.70;1.30;;;;;;;24.89;49.73;100364.79;88136;1277;78031;-36
2022/06/13 20:01:24;;;;;;;2.30;1.50;;;;;;;24.88;49.65;100364.69;88135;1276;82330;-36
2022/06/13 20:03:34;;;;;;;2.10;1.50;;;;;;;24.87;49.64;100369.77;88152;1276;97503;-35
2022/06/13 20:10:33;;;;;;;1.60;1.30;;;;;;;24.84;49.75;100367.64;88118;1277;79656;-36
2022/06/13 20:12:44;;;;;;;2.30;1.40;;;;;;;24.84;49.64;100367.46;88124;1277;83148;-35
2022/06/13 20:14:54;;;;;;;2.80;1.40;;;;;;;24.83;49.69;100367.70;88152;1277;97354;-33
2022/06/13 20:17:09;;;;;;;1.80;1.30;;;;;;;24.82;49.64;100371.73;88141;1277;90357;-33
2022/06/13 20:19:21;;;;;;;2.30;1.40;;;;;;;24.81;49.60;100372.40;88118;1276;94741;-33
2022/06/13 20:21:31;;;;;;;1.50;1.40;;;;;;;24.80;49.63;100370.14;88156;1276;79393;-33
2022/06/13 20:23:39;;;;;;;2.00;1.30;;;;;;;24.80;49.65;100373.08;88147;1277;80523;-32
2022/06/13 20:25:47;;;;;;;1.30;1.10;;;;;;;24.79;49.64;100371.38;88128;1276;97827;-33
2022/06/13 20:27:55;;;;;;;1.90;1.30;;;;;;;24.78;49.64;100371.45;88145;1275;89787;-34
2022/06/13 20:30:04;;;;;;;2.10;1.50;;;;;;;24.78;49.65;100374.60;88127;1277;94636;-33
2022/06/13 20:32:14;;;;;;;1.60;1.30;;;;;;;24.77;49.61;100376.98;88151;1277;80199;-33
2022/06/13 20:34:26;;;;;;;2.10;1.40;;;;;;;24.77;49.65;100378.70;88131;1276;81231;-33
2022/06/13 20:36:35;;;;;;;3.70;1.70;;;;;;;24.77;49.75;100384.67;88159;1277;98870;-33
2022/06/13 20:38:44;;;;;;;3.80;1.60;;;;;;;24.76;49.83;100387.54;88099;1276;90661;-33
2022/06/13 20:40:52;;;;;;;4.00;1.80;;;;;;;24.76;49.89;100391.85;88141;1276;94146;-33
2022/06/13 20:43:03;;;;;;;4.20;1.90;;;;;;;24.76;49.89;100394.06;88120;1277;78754;-33
2022/06/13 20:45:16;;;;;;;4.50;1.80;;;;;;;24.75;49.96;100397.32;88152;1276;83122;-32
2022/06/13 20:47:28;;;;;;;5.50;2.00;;;;;;;24.74;49.86;100396.56;88021;1275;96795;-30
2022/06/13 20:49:40;;;;;;;5.80;2.60;;;;;;;24.75;50.10;100400.64;88111;1277;91989;-34
2022/06/13 20:51:48;;;;;;;4.70;2.10;;;;;;;24.75;50.20;100400.38;88104;1277;95260;-34
2022/06/13 20:53:56;;;;;;;6.30;2.80;;;;;;;24.35;50.15;100405.06;88080;1277;78790;-34
2022/06/13 20:56:10;;;;;;;4.20;2.40;;;;;;;24.05;50.24;100401.25;88085;1277;82328;-32
2022/06/13 20:58:25;;;;;;;4.20;2.40;;;;;;;23.59;50.49;100402.35;87943;1277;98443;-32
2022/06/13 21:00:37;;;;;;;4.80;2.20;;;;;;;23.24;51.14;100403.15;88049;1277;89848;-34
2022/06/13 21:02:49;;;;;;;5.30;2.40;;;;;;;23.38;51.50;100402.75;88100;1278;95573;-34
2022/06/13 21:04:56;;;;;;;4.50;2.20;;;;;;;23.40;51.50;100402.93;88098;1277;78954;-35
2022/06/13 21:07:05;;;;;;;6.10;2.60;;;;;;;23.21;51.63;100402.04;88069;1277;81570;-34
2022/06/13 21:11:44;;;;;;;4.40;2.40;;;;;;;22.73;52.46;100411.63;88099;1277;92274;-34
2022/06/13 21:13:51;;;;;;;4.80;2.60;;;;;;;22.69;52.54;100412.81;88064;1277;94295;-35
2022/06/13 21:16:03;;;;;;;7.40;2.90;;;;;;;22.52;52.67;100412.15;88064;1277;79918;-35
2022/06/13 21:18:14;;;;;;;4.50;2.20;;;;;;;22.69;53.33;100405.93;88130;1278;81614;-35
2022/06/13 21:20:24;;;;;;;4.60;2.40;;;;;;;22.96;53.10;100405.16;88182;1278;97846;-34
2022/06/13 21:22:33;;;;;;;6.90;2.70;;;;;;;23.18;52.97;100408.15;88083;1274;91999;-34
2022/06/13 21:24:43;;;;;;;8.30;2.90;;;;;;;23.38;53.07;100406.28;88179;1274;95772;-33
2022/06/13 21:26:52;;;;;;;4.30;2.00;;;;;;;23.54;52.95;100407.80;88059;1277;78800;-33
2022/06/13 21:29:00;;;;;;;2.90;2.00;;;;;;;23.63;52.83;100408.64;88137;1277;83043;-33
2022/06/13 21:31:10;;;;;;;3.10;1.90;;;;;;;23.70;52.49;100408.64;88097;1277;96785;-33
2022/06/13 21:33:18;;;;;;;3.40;2.30;;;;;;;23.76;52.56;100411.19;88120;1277;90174;-31
2022/06/13 21:35:27;;;;;;;3.50;1.80;;;;;;;23.81;52.31;100404.84;88091;1277;94964;-31
2022/06/13 21:37:35;;;;;;;3.90;2.10;;;;;;;23.85;52.22;100409.41;88091;1277;79600;-32
2022/06/13 21:39:43;;;;;;;3.70;1.90;;;;;;;23.89;52.18;100410.63;88068;1276;81673;-32
2022/06/13 21:41:51;;;;;;;5.00;2.00;;;;;;;23.93;52.15;100410.69;88092;1278;98853;-33
2022/06/13 21:44:01;;;;;;;3.90;2.00;;;;;;;23.96;51.99;100414.71;88049;1277;90281;-33
2022/06/13 21:46:11;;;;;;;4.70;2.20;;;;;;;23.99;51.92;100419.02;88098;1277;95757;-32
2022/06/13 21:48:22;;;;;;;4.00;2.10;;;;;;;24.01;51.85;100417.30;88051;1276;80911;-31
2022/06/13 21:50:33;;;;;;;2.90;1.80;;;;;;;24.04;51.84;100417.02;88121;1275;80651;-31
2022/06/13 21:52:42;;;;;;;3.30;1.70;;;;;;;24.06;51.66;100420.05;88076;1277;98235;-31
2022/06/13 21:54:53;;;;;;;2.80;1.80;;;;;;;24.08;51.51;100419.78;87981;1277;89846;-32
2022/06/13 21:57:01;;;;;;;3.60;1.80;;;;;;;24.10;51.52;100417.10;88106;1277;94554;-32
2022/06/13 21:59:12;;;;;;;3.20;2.10;;;;;;;24.12;51.51;100416.11;88089;1278;79608;-32
2022/06/13 22:01:21;;;;;;;4.30;1.90;;;;;;;24.14;51.51;100415.50;88090;1277;81127;-32
2022/06/13 22:03:32;;;;;;;2.30;1.70;;;;;;;24.15;51.45;100413.17;88077;1277;97975;-33
2022/06/13 22:05:41;;;;;;;3.80;1.50;;;;;;;24.17;51.29;100415.66;88063;1276;91559;-31
2022/06/13 22:07:52;;;;;;;3.50;1.90;;;;;;;24.18;51.29;100419.79;88065;1277;93095;-33
2022/06/13 22:10:01;;;;;;;4.50;2.00;;;;;;;24.19;51.29;100416.49;88067;1277;79525;-32
2022/06/13 22:12:13;;;;;;;3.10;1.90;;;;;;;24.20;51.18;100416.00;88077;1277;81033;-32
2022/06/13 22:14:21;;;;;;;5.50;2.20;;;;;;;24.21;51.22;100413.77;88144;1277;97839;-32
2022/06/13 22:16:29;;;;;;;3.70;2.10;;;;;;;24.22;51.07;100412.23;88088;1277;91924;-32
2022/06/13 22:18:37;;;;;;;3.60;1.90;;;;;;;24.23;50.98;100411.95;88094;1277;92082;-32
2022/06/13 22:20:45;;;;;;;4.30;1.90;;;;;;;24.24;51.07;100416.20;88138;1276;79588;-32
2022/06/13 22:22:56;;;;;;;4.00;1.90;;;;;;;24.24;50.93;100414.55;88133;1277;80541;-32
2022/06/13 22:25:04;;;;;;;3.10;2.00;;;;;;;24.25;50.95;100415.11;88128;1277;97064;-32
2022/06/13 22:27:12;;;;;;;3.60;1.50;;;;;;;24.25;50.92;100415.92;88143;1277;91790;-31
2022/06/13 22:29:20;;;;;;;2.70;1.80;;;;;;;24.26;50.88;100414.77;88111;1277;93985;-32
2022/06/13 22:31:27;;;;;;;2.20;1.60;;;;;;;24.26;50.93;100416.30;88050;1277;83250;-32
2022/06/13 22:33:35;;;;;;;2.50;1.60;;;;;;;24.26;50.90;100415.91;88050;1277;82226;-32
2022/06/13 22:35:46;;;;;;;2.50;1.90;;;;;;;24.26;50.80;100411.83;88149;1277;99073;-31
2022/06/13 22:37:55;;;;;;;3.10;2.00;;;;;;;24.27;50.80;100410.58;88106;1277;92565;-33
2022/06/13 22:40:05;;;;;;;3.40;1.90;;;;;;;24.27;50.83;100410.06;88048;1276;94131;-30
2022/06/13 22:42:16;;;;;;;3.00;2.00;;;;;;;24.27;50.74;100408.52;88099;1276;78566;-30
2022/06/13 22:44:23;;;;;;;3.10;1.80;;;;;;;24.27;50.70;100406.53;88088;1276;80996;-31
2022/06/13 22:51:30;;;;;;;3.50;1.90;;;;;;;24.27;50.76;100402.29;88097;1277;94952;-31
2022/06/13 22:53:38;;;;;;;3.90;2.00;;;;;;;24.27;50.67;100404.33;88099;1276;80329;-31
2022/06/13 22:55:46;;;;;;;3.60;1.80;;;;;;;24.27;50.68;100406.04;88108;1276;81493;-31
2022/06/13 22:57:54;;;;;;;2.70;1.80;;;;;;;24.27;50.59;100406.52;88110;1276;96944;-32
2022/06/13 23:00:03;;;;;;;4.00;1.90;;;;;;;24.27;50.58;100407.26;88114;1276;90841;-31
2022/06/13 23:02:11;;;;;;;3.30;2.20;;;;;;;24.27;50.58;100405.27;88079;1276;94873;-31
2022/06/13 23:04:19;;;;;;;3.00;1.60;;;;;;;24.27;50.58;100408.20;88045;1277;78612;-32
2022/06/13 23:06:27;;;;;;;2.60;1.80;;;;;;;24.27;50.60;100406.42;88111;1276;80640;-33
2022/06/13 23:08:34;;;;;;;2.30;1.70;;;;;;;24.27;50.52;100404.16;88104;1276;97791;-31
2022/06/13 23:10:42;;;;;;;2.80;1.70;;;;;;;24.27;50.49;100406.64;88110;1276;91543;-31
2022/06/13 23:12:51;;;;;;;2.70;2.00;;;;;;;24.26;50.35;100402.83;88088;1276;97371;-31
2022/06/13 23:14:58;;;;;;;2.60;1.50;;;;;;;24.26;50.42;100404.31;88086;1276;79815;-33
2022/06/13 23:17:07;;;;;;;3.40;1.90;;;;;;;24.26;50.40;100403.61;88094;1276;81937;-32
2022/06/13 23:19:15;;;;;;;2.20;1.60;;;;;;;24.25;50.30;100405.98;87946;1279;95821;-31
2022/06/13 23:21:22;;;;;;;2.40;1.80;;;;;;;24.25;50.34;100402.73;88098;1277;92235;-32
2022/06/13 23:23:30;;;;;;;2.90;1.70;;;;;;;24.25;50.35;100403.11;88100;1276;95140;-32
2022/06/13 23:25:38;;;;;;;2.70;1.90;;;;;;;24.24;50.24;100403.05;88096;1277;79516;-32
2022/06/13 23:27:46;;;;;;;2.80;1.60;;;;;;;24.24;50.24;100399.81;88099;1276;80829;-32
2022/06/13 23:29:56;;;;;;;2.90;1.80;;;;;;;24.24;50.15;100400.36;88120;1276;97932;-32
2022/06/13 23:32:04;;;;;;;2.30;1.40;;;;;;;24.24;50.17;100400.80;88067;1277;90927;-32
2022/06/13 23:34:12;;;;;;;1.80;1.50;;;;;;;24.23;50.11;100403.13;88009;1277;94385;-32
2022/06/13 23:36:19;;;;;;;2.50;1.50;;;;;;;24.23;50.10;100408.88;88099;1276;79347;-32
2022/06/13 23:38:30;;;;;;;4.60;1.80;;;;;;;24.22;50.08;100408.20;88111;1276;82548;-32
2022/06/13 23:40:38;;;;;;;2.70;1.90;;;;;;;24.22;50.00;100408.42;88147;1277;98429;-32
2022/06/13 23:43:03;;;;;;;2.20;1.80;;;;;;;24.22;49.96;100414.06;88091;1276;92170;-29
2022/06/13 23:45:28;;;;;;;3.30;1.60;;;;;;;24.21;49.96;100412.29;88119;1276;96568;-31
2022/06/13 23:47:53;;;;;;;3.20;1.60;;;;;;;24.20;50.04;100411.90;88131;1276;81093;-31
2022/06/13 23:50:37;;;;;;;1.80;1.50;;;;;;;24.20;49.97;100419.63;88155;1276;85860;-32
2022/06/13 23:53:03;;;;;;;4.50;1.70;;;;;;;24.18;49.94;100419.96;88146;1277;99858;-32
2022/06/13 23:55:29;;;;;;;2.60;2.00;;;;;;;24.18;49.91;100421.35;88133;1277;91713;-32
2022/06/13 23:57:55;;;;;;;2.40;1.60;;;;;;;24.18;49.81;100422.67;88145;1277;96857;-32
